Time;durP1;ratioP1;P1;durP2;ratioP2;P2;SDS_P1;SDS_P2;PMS_P1;PMS_P2;Temp;Humidity;BMP_temperature;BMP_pressure;BME280_temperature;BME280_humidity;BME280_pressure;Samples;Min_cycle;Max_cycle;Signal;HPM_P1;HPM_P2
2022/03/19 00:02:02;;;;;;;7.30;2.77;;;;;;;7.36;100.00;101590.03;4979831;28;20227;-79
2022/03/19 00:04:31;;;;;;;8.47;2.97;;;;;;;7.23;100.00;101588.41;5007002;28;20215;-79
2022/03/19 00:07:02;;;;;;;7.03;3.00;;;;;;;7.08;100.00;101597.34;4984859;28;20200;-79
2022/03/19 00:09:34;;;;;;;5.80;2.83;;;;;;;7.13;100.00;101593.75;5032445;28;20204;-79
2022/03/19 00:12:03;;;;;;;4.53;2.47;;;;;;;7.28;100.00;101590.09;5031572;28;20217;-79
2022/03/19 00:14:32;;;;;;;4.10;2.50;;;;;;;7.27;100.00;101595.41;5030526;28;20229;-80
2022/03/19 00:17:01;;;;;;;4.23;2.60;;;;;;;7.08;100.00;101603.50;4985229;28;20229;-79
2022/03/19 00:19:30;;;;;;;5.60;2.77;;;;;;;6.65;100.00;101603.00;5031912;28;20193;-78
2022/03/19 00:21:58;;;;;;;5.53;2.60;;;;;;;6.69;100.00;101591.59;5042153;28;20412;-77
2022/03/19 00:24:27;;;;;;;5.20;2.63;;;;;;;6.57;100.00;101587.31;5033508;28;20198;-76
2022/03/19 00:26:57;;;;;;;5.17;2.50;;;;;;;6.61;100.00;101596.03;5028533;28;20256;-77
2022/03/19 00:29:25;;;;;;;4.50;2.40;;;;;;;6.71;100.00;101599.47;5033580;28;20649;-76
2022/03/19 00:31:54;;;;;;;6.07;2.57;;;;;;;6.66;100.00;101596.88;5027364;28;20217;-77
2022/03/19 00:34:24;;;;;;;5.80;2.60;;;;;;;6.66;100.00;101599.53;4980819;28;20226;-77
2022/03/19 00:36:54;;;;;;;4.97;2.70;;;;;;;6.80;100.00;101599.38;5008962;28;20203;-77
2022/03/19 00:39:23;;;;;;;7.20;3.30;;;;;;;6.88;100.00;101595.78;4957739;28;20233;-77
2022/03/19 00:41:52;;;;;;;6.97;2.57;;;;;;;6.86;100.00;101592.31;4910747;29;20240;-76
2022/03/19 00:44:23;;;;;;;5.73;2.57;;;;;;;6.93;100.00;101589.59;4909277;28;20260;-76
2022/03/19 00:46:52;;;;;;;5.67;2.63;;;;;;;6.69;100.00;101594.22;4908912;29;20200;-76
2022/03/19 00:49:22;;;;;;;4.33;2.87;;;;;;;6.68;100.00;101591.59;4910706;29;20285;-76
2022/03/19 00:51:51;;;;;;;4.23;2.43;;;;;;;6.81;100.00;101588.81;4921043;29;20224;-76
2022/03/19 00:54:22;;;;;;;4.63;2.50;;;;;;;6.87;100.00;101583.50;4963806;28;20250;-76
2022/03/19 00:56:52;;;;;;;7.10;3.20;;;;;;;6.69;100.00;101586.31;4963955;28;20198;-77
2022/03/19 00:59:23;;;;;;;5.80;2.93;;;;;;;6.63;100.00;101586.34;5009063;28;20190;-77
2022/03/19 01:01:52;;;;;;;7.43;2.77;;;;;;;6.55;100.00;101588.19;5010498;28;20205;-77
2022/03/19 01:04:21;;;;;;;8.10;2.70;;;;;;;6.67;100.00;101590.72;5010444;28;20202;-79
2022/03/19 01:06:49;;;;;;;9.43;3.10;;;;;;;6.71;100.00;101587.16;5004906;28;20199;-76
2022/03/19 01:09:18;;;;;;;6.30;2.40;;;;;;;6.57;100.00;101591.69;5004345;28;20195;-77
2022/03/19 01:11:46;;;;;;;6.17;2.70;;;;;;;6.71;100.00;101592.44;5007307;28;20218;-77
2022/03/19 01:14:16;;;;;;;7.03;2.90;;;;;;;6.53;100.00;101601.34;4963606;28;20212;-77
2022/03/19 01:16:46;;;;;;;6.33;2.90;;;;;;;6.62;100.00;101592.50;5008513;28;20691;-77
2022/03/19 01:19:52;;;;;;;6.90;3.10;;;;;;;6.66;100.00;101595.97;5010841;28;20202;-77
2022/03/19 01:22:04;;;;;;;10.80;3.07;;;;;;;6.36;100.00;101589.22;5013428;28;20202;-77
2022/03/19 01:24:34;;;;;;;6.00;3.10;;;;;;;6.52;100.00;101582.94;5010321;28;20198;-77
2022/03/19 01:27:03;;;;;;;8.67;3.50;;;;;;;6.56;100.00;101590.81;5010510;28;20202;-77
2022/03/19 01:29:33;;;;;;;9.80;3.00;;;;;;;6.65;100.00;101578.44;5005478;28;20210;-77
2022/03/19 01:32:04;;;;;;;5.33;2.67;;;;;;;6.61;100.00;101580.22;5008595;28;20222;-76
2022/03/19 01:34:33;;;;;;;4.40;2.40;;;;;;;6.24;100.00;101584.91;4992394;28;20209;-77
2022/03/19 01:37:01;;;;;;;8.93;2.73;;;;;;;6.19;100.00;101578.81;4961129;29;20276;-77
2022/03/19 01:39:34;;;;;;;8.27;3.27;;;;;;;6.03;100.00;101575.41;4975863;28;20231;-77
2022/03/19 01:42:04;;;;;;;5.53;2.70;;;;;;;6.13;100.00;101576.22;4980432;28;20212;-77
2022/03/19 01:44:33;;;;;;;7.10;2.90;;;;;;;6.07;100.00;101566.59;4992563;28;20199;-77
2022/03/19 01:47:06;;;;;;;5.77;3.03;;;;;;;6.10;100.00;101566.59;4993066;28;20363;-76
2022/03/19 01:49:36;;;;;;;7.70;2.70;;;;;;;5.73;100.00;101558.03;4992363;28;20207;-76
2022/03/19 01:52:06;;;;;;;5.23;2.67;;;;;;;5.77;100.00;101558.88;4990968;28;20269;-77
2022/03/19 01:54:38;;;;;;;7.33;3.33;;;;;;;5.87;100.00;101552.66;4969401;28;20418;-76
2022/03/19 01:57:07;;;;;;;7.23;2.93;;;;;;;5.94;100.00;101551.78;4988079;28;20211;-76
2022/03/19 01:59:39;;;;;;;9.23;3.23;;;;;;;6.01;100.00;101550.88;4990665;28;20241;-76
2022/03/19 02:02:11;;;;;;;5.90;3.10;;;;;;;5.95;100.00;101546.53;4983752;28;20208;-77
2022/03/19 02:04:43;;;;;;;6.70;3.00;;;;;;;5.99;100.00;101536.88;4973076;28;20331;-77
2022/03/19 02:07:13;;;;;;;5.63;2.80;;;;;;;5.96;100.00;101542.13;4980198;28;20248;-77
2022/03/19 02:09:42;;;;;;;6.10;2.77;;;;;;;5.96;100.00;101547.38;4975732;28;20196;-77
2022/03/19 02:12:11;;;;;;;11.20;3.20;;;;;;;5.95;100.00;101548.28;4976796;28;20219;-77
2022/03/19 02:14:44;;;;;;;9.37;3.07;;;;;;;5.89;100.00;101549.19;4973324;28;20203;-77
2022/03/19 02:17:14;;;;;;;7.70;3.70;;;;;;;5.74;100.00;101550.13;4960727;28;20199;-77
2022/03/19 02:19:49;;;;;;;7.27;3.17;;;;;;;5.92;100.00;101550.94;4972262;28;20639;-77
2022/03/19 02:22:20;;;;;;;8.10;2.80;;;;;;;5.96;100.00;101540.38;4968970;28;20231;-77
2022/03/19 02:27:41;;;;;;;6.53;3.27;;;;;;;5.88;100.00;101538.63;4972445;28;20257;-77
2022/03/19 02:30:15;;;;;;;7.23;3.47;;;;;;;5.85;100.00;101539.53;4972266;28;20203;-77
2022/03/19 02:32:49;;;;;;;8.17;3.60;;;;;;;5.72;100.00;101533.50;5028706;28;20647;-77
2022/03/19 02:35:19;;;;;;;8.73;3.67;;;;;;;5.89;100.00;101516.75;5029004;28;20235;-77
2022/03/19 02:37:54;;;;;;;8.17;3.50;;;;;;;5.92;100.00;101519.38;5028042;28;20209;-77
2022/03/19 02:40:25;;;;;;;6.00;3.43;;;;;;;5.85;100.00;101517.63;4935083;28;20238;-77
2022/03/19 02:42:55;;;;;;;6.23;3.40;;;;;;;5.82;100.00;101518.53;4945597;29;20200;-76
2022/03/19 02:45:25;;;;;;;7.70;3.50;;;;;;;5.80;100.00;101520.31;4947566;28;20200;-77
2022/03/19 02:48:00;;;;;;;8.60;3.80;;;;;;;5.87;100.00;101508.84;4948283;28;20208;-77
2022/03/19 02:50:32;;;;;;;6.27;3.30;;;;;;;5.80;100.00;101520.31;4947544;28;20203;-77
2022/03/19 02:53:02;;;;;;;8.00;3.73;;;;;;;5.96;100.00;101514.06;4950528;28;20276;-77
2022/03/19 02:55:37;;;;;;;5.67;3.33;;;;;;;5.98;100.00;101512.31;4957095;28;20250;-76
2022/03/19 02:58:06;;;;;;;9.07;3.80;;;;;;;5.96;100.00;101508.81;4979978;28;20204;-76
2022/03/19 03:00:38;;;;;;;8.00;3.77;;;;;;;6.02;100.00;101500.00;4973447;28;20338;-77
2022/03/19 03:03:08;;;;;;;12.30;4.20;;;;;;;6.00;100.00;101502.66;4972489;28;20309;-77
2022/03/19 03:05:37;;;;;;;8.07;3.47;;;;;;;5.99;100.00;101490.38;4969904;28;20344;-77
2022/03/19 03:08:05;;;;;;;7.97;3.73;;;;;;;5.86;100.00;101493.94;4964976;28;20694;-77
2022/03/19 03:10:36;;;;;;;6.40;3.63;;;;;;;5.99;100.00;101482.50;4977176;28;20195;-77
2022/03/19 03:13:05;;;;;;;8.43;3.90;;;;;;;5.93;100.00;101485.16;4951803;28;20272;-77
2022/03/19 03:15:34;;;;;;;6.83;3.70;;;;;;;5.99;100.00;101474.59;4945433;28;20196;-77
2022/03/19 03:18:05;;;;;;;8.00;3.80;;;;;;;5.75;100.00;101480.88;4963138;28;20189;-77
2022/03/19 03:20:35;;;;;;;6.37;4.00;;;;;;;5.70;100.00;101476.53;5029803;28;20394;-77
2022/03/19 03:23:05;;;;;;;8.67;4.30;;;;;;;5.67;100.00;101479.16;5027064;28;20224;-77
2022/03/19 03:25:35;;;;;;;10.90;4.70;;;;;;;5.62;100.00;101480.97;5024425;28;20190;-76
2022/03/19 03:28:04;;;;;;;11.13;4.53;;;;;;;5.64;100.00;101474.81;5026229;28;20204;-77
2022/03/19 03:30:33;;;;;;;10.13;4.30;;;;;;;5.62;100.00;101486.22;5013067;28;20383;-77
2022/03/19 03:33:01;;;;;;;7.47;4.10;;;;;;;5.56;100.00;101484.50;4983488;28;20227;-78
2022/03/19 03:35:33;;;;;;;8.67;4.27;;;;;;;5.30;100.00;101482.00;4983741;28;20206;-76
2022/03/19 03:38:05;;;;;;;10.80;4.50;;;;;;;5.19;100.00;101491.69;4979690;28;20207;-77
2022/03/19 03:40:35;;;;;;;8.17;3.90;;;;;;;5.21;100.00;101497.84;4978885;28;20220;-77
2022/03/19 03:43:04;;;;;;;8.17;4.00;;;;;;;4.91;100.00;101485.66;4977463;28;20204;-76
2022/03/19 03:45:34;;;;;;;7.77;4.60;;;;;;;5.07;100.00;101489.13;4981856;28;20192;-76
2022/03/19 03:48:02;;;;;;;7.57;4.23;;;;;;;5.17;100.00;101486.44;4971415;28;20192;-77
2022/03/19 03:50:31;;;;;;;9.87;5.10;;;;;;;4.96;100.00;101483.03;5026139;28;20202;-76
2022/03/19 03:52:59;;;;;;;9.37;4.63;;;;;;;5.02;100.00;101480.38;5028956;28;20217;-77
2022/03/19 03:55:28;;;;;;;8.17;4.30;;;;;;;4.87;100.00;101479.56;4989297;28;21296;-76
2022/03/19 03:58:00;;;;;;;13.43;4.47;;;;;;;5.11;100.00;101496.09;4983218;28;20202;-76
2022/03/19 04:00:29;;;;;;;10.97;5.10;;;;;;;5.13;100.00;101482.09;4969928;28;20286;-77
2022/03/19 04:03:00;;;;;;;8.53;4.60;;;;;;;5.15;100.00;101479.47;4970645;28;20275;-76
2022/03/19 04:05:28;;;;;;;7.50;4.57;;;;;;;5.03;100.00;101477.78;4972263;28;20290;-76
2022/03/19 04:07:59;;;;;;;9.33;4.57;;;;;;;5.15;100.00;101474.22;4955729;28;20224;-77
2022/03/19 04:10:27;;;;;;;10.50;4.97;;;;;;;5.00;100.00;101482.16;4903422;29;20241;-75
2022/03/19 04:12:58;;;;;;;8.93;4.73;;;;;;;5.13;100.00;101474.22;4908081;28;20233;-77
2022/03/19 04:15:27;;;;;;;8.73;5.20;;;;;;;5.07;100.00;101479.50;4906564;29;20217;-77
2022/03/19 04:17:59;;;;;;;7.67;4.30;;;;;;;5.07;100.00;101476.88;4934428;28;20273;-78
2022/03/19 04:20:27;;;;;;;9.53;4.93;;;;;;;5.09;100.00;101480.34;4987528;28;20194;-76
2022/03/19 04:22:56;;;;;;;11.20;4.97;;;;;;;5.12;100.00;101483.00;4982556;28;20275;-77
2022/03/19 04:25:28;;;;;;;6.93;4.40;;;;;;;4.92;100.00;101481.28;4978954;28;20196;-76
2022/03/19 04:27:59;;;;;;;8.30;4.30;;;;;;;5.00;100.00;101479.50;4987057;28;20203;-77
2022/03/19 04:30:28;;;;;;;7.10;4.53;;;;;;;4.94;100.00;101469.06;5050394;28;20197;-77
2022/03/19 04:32:59;;;;;;;11.20;4.80;;;;;;;4.89;100.00;101471.69;5050390;28;20254;-77
2022/03/19 04:38:20;;;;;;;10.93;4.70;;;;;;;4.88;100.00;101469.94;5053760;28;20201;-76
2022/03/19 04:40:50;;;;;;;10.60;4.67;;;;;;;4.97;100.00;101475.16;5050467;28;20251;-77
2022/03/19 04:43:23;;;;;;;8.60;4.50;;;;;;;4.83;100.00;101461.22;5047233;28;20244;-77
2022/03/19 04:45:51;;;;;;;8.03;4.40;;;;;;;5.00;100.00;101469.00;5038577;28;20264;-77
2022/03/19 04:48:20;;;;;;;9.53;4.73;;;;;;;4.97;100.00;101463.78;4966797;28;20204;-77
2022/03/19 04:50:48;;;;;;;9.83;4.60;;;;;;;4.86;100.00;101469.94;4966352;28;20639;-76
2022/03/19 04:53:16;;;;;;;9.40;4.67;;;;;;;4.87;100.00;101469.06;4969300;28;20323;-77
2022/03/19 04:55:47;;;;;;;9.37;4.77;;;;;;;4.92;100.00;101479.53;4966393;28;20204;-77
2022/03/19 04:58:15;;;;;;;8.13;4.63;;;;;;;5.01;100.00;101465.50;4975003;28;20204;-77
2022/03/19 05:00:45;;;;;;;8.83;4.53;;;;;;;4.88;100.00;101464.69;4973455;28;20604;-76
2022/03/19 05:03:14;;;;;;;10.50;4.70;;;;;;;4.78;100.00;101476.97;4970120;28;20235;-76
2022/03/19 05:05:43;;;;;;;7.63;4.63;;;;;;;4.83;100.00;101471.72;4910247;29;20216;-77
2022/03/19 05:08:16;;;;;;;7.23;4.30;;;;;;;4.73;100.00;101478.75;4914770;29;20234;-79
2022/03/19 05:13:30;;;;;;;9.70;5.43;;;;;;;4.59;100.00;101478.75;4984192;28;20222;-76
2022/03/19 05:16:02;;;;;;;9.07;4.90;;;;;;;4.52;100.00;101484.88;5007342;28;20205;-77
2022/03/19 05:18:33;;;;;;;8.80;4.87;;;;;;;4.59;100.00;101478.75;4962603;28;20197;-77
2022/03/19 05:21:01;;;;;;;7.17;5.00;;;;;;;4.43;100.00;101481.41;5014169;28;20205;-76
2022/03/19 05:23:30;;;;;;;8.77;5.10;;;;;;;4.53;100.00;101481.38;5009806;28;20251;-76
2022/03/19 05:25:59;;;;;;;9.83;5.43;;;;;;;4.43;100.00;101482.28;5006567;28;20198;-77
2022/03/19 05:28:28;;;;;;;12.30;5.87;;;;;;;4.46;100.00;101477.06;5008097;28;20194;-77
2022/03/19 05:30:58;;;;;;;11.70;5.27;;;;;;;4.45;100.00;101485.81;4980086;28;20200;-77
2022/03/19 05:36:13;;;;;;;12.57;5.60;;;;;;;4.75;100.00;101479.59;4975837;28;20196;-77
2022/03/19 05:38:41;;;;;;;11.80;7.00;;;;;;;4.78;100.00;101484.84;5008862;28;20201;-77
2022/03/19 05:41:10;;;;;;;15.03;6.80;;;;;;;4.87;100.00;101476.06;5013587;28;20203;-77
2022/03/19 05:43:39;;;;;;;11.97;6.03;;;;;;;4.99;100.00;101483.91;5006569;28;20198;-77
2022/03/19 05:46:08;;;;;;;13.73;8.33;;;;;;;5.03;100.00;101474.28;5005517;28;20198;-77
2022/03/19 05:48:38;;;;;;;12.70;7.13;;;;;;;5.10;100.00;101479.47;5009202;28;20191;-77
2022/03/19 05:51:09;;;;;;;9.30;5.40;;;;;;;4.98;100.00;101476.91;5008786;28;20205;-77
2022/03/19 05:53:40;;;;;;;16.03;5.80;;;;;;;4.94;100.00;101485.69;5007048;28;20198;-76
2022/03/19 05:56:13;;;;;;;13.27;8.13;;;;;;;4.77;100.00;101495.34;5013555;28;20287;-77
2022/03/19 05:58:41;;;;;;;14.00;7.17;;;;;;;4.92;100.00;101497.03;5012747;28;20199;-77
2022/03/19 06:01:09;;;;;;;15.83;8.13;;;;;;;4.97;100.00;101501.41;5010661;28;20214;-77
2022/03/19 06:03:39;;;;;;;13.10;7.90;;;;;;;5.01;100.00;101504.91;4983553;28;20204;-77
2022/03/19 06:06:08;;;;;;;14.00;6.13;;;;;;;5.09;100.00;101498.75;5037511;28;20227;-77
2022/03/19 06:08:36;;;;;;;11.33;6.33;;;;;;;4.97;100.00;101490.91;4974749;28;20206;-77
2022/03/19 06:11:04;;;;;;;14.33;6.80;;;;;;;4.72;100.00;101505.84;4980602;28;20207;-77
2022/03/19 06:13:32;;;;;;;15.67;7.07;;;;;;;4.91;100.00;101506.69;5004454;28;20204;-77
2022/03/19 06:16:01;;;;;;;13.40;6.87;;;;;;;4.97;100.00;101495.28;4982601;28;20220;-77
2022/03/19 06:18:30;;;;;;;12.70;6.70;;;;;;;5.01;100.00;101492.63;4982895;28;20646;-77
2022/03/19 06:21:00;;;;;;;14.83;6.93;;;;;;;5.12;100.00;101497.88;4983796;28;20222;-77
2022/03/19 06:23:28;;;;;;;10.13;5.83;;;;;;;5.22;100.00;101496.97;4981591;28;20203;-77
2022/03/19 06:25:58;;;;;;;11.13;6.33;;;;;;;5.21;100.00;101494.31;4982071;28;20250;-77
2022/03/19 06:28:27;;;;;;;12.73;6.77;;;;;;;5.25;100.00;101493.44;4982533;28;20246;-77
2022/03/19 06:30:56;;;;;;;12.77;6.73;;;;;;;5.33;100.00;101487.25;4981046;28;20195;-77
2022/03/19 06:33:26;;;;;;;14.57;7.37;;;;;;;5.49;100.00;101489.78;4985210;28;20218;-77
2022/03/19 06:38:42;;;;;;;12.80;7.00;;;;;;;5.30;100.00;101491.63;4970235;28;20715;-77
2022/03/19 06:41:11;;;;;;;13.70;6.90;;;;;;;5.44;100.00;101493.34;4908815;29;20201;-77
2022/03/19 06:43:40;;;;;;;12.57;7.43;;;;;;;5.48;100.00;101488.91;4864800;29;20201;-77
2022/03/19 06:46:08;;;;;;;14.53;7.13;;;;;;;5.58;100.00;101490.63;4914001;29;20210;-76
2022/03/19 06:48:37;;;;;;;13.40;7.30;;;;;;;5.59;100.00;101491.47;4910648;29;20197;-77
2022/03/19 06:51:07;;;;;;;16.70;7.50;;;;;;;5.67;100.00;101490.56;4908020;29;20249;-77
2022/03/19 06:53:35;;;;;;;12.13;6.60;;;;;;;5.63;100.00;101495.88;4894589;29;20235;-77
2022/03/19 06:56:05;;;;;;;15.10;7.03;;;;;;;5.76;100.00;101492.25;4873730;29;20227;-79
2022/03/19 06:58:38;;;;;;;11.67;6.47;;;;;;;5.82;100.00;101494.00;4837997;29;20201;-77
2022/03/19 07:01:09;;;;;;;10.63;6.37;;;;;;;5.81;100.00;101494.88;4897329;29;20202;-77
2022/03/19 07:03:39;;;;;;;16.60;7.13;;;;;;;5.77;100.00;101491.38;4892087;29;20285;-77
2022/03/19 07:06:13;;;;;;;17.60;6.83;;;;;;;5.83;100.00;101493.09;4904627;28;20216;-77
2022/03/19 07:09:01;;;;;;;14.13;6.73;;;;;;;5.91;100.00;101502.72;4894903;29;20765;-79
2022/03/19 07:11:31;;;;;;;14.97;6.43;;;;;;;6.04;100.00;101503.50;4897150;29;20195;-79
2022/03/19 07:14:01;;;;;;;11.77;6.50;;;;;;;6.08;100.00;101494.72;4899323;29;20212;-79
2022/03/19 07:16:35;;;;;;;11.70;6.40;;;;;;;6.13;100.00;101487.63;4899918;29;20230;-80
2022/03/19 07:19:09;;;;;;;13.07;6.90;;;;;;;6.11;100.00;101484.16;4865401;29;20203;-79
2022/03/19 07:21:37;;;;;;;10.90;6.67;;;;;;;6.06;100.00;101485.06;4911925;29;20202;-79
2022/03/19 07:24:09;;;;;;;10.53;6.57;;;;;;;6.09;100.00;101487.69;4914858;29;20204;-79
2022/03/19 07:26:39;;;;;;;13.13;7.17;;;;;;;6.13;100.00;101487.63;4913568;29;20654;-78
2022/03/19 07:29:07;;;;;;;13.63;6.10;;;;;;;6.42;100.00;101486.50;4918077;29;20214;-79
2022/03/19 07:31:36;;;;;;;14.43;6.27;;;;;;;6.52;100.00;101494.28;4910768;29;20225;-79
2022/03/19 07:34:05;;;;;;;11.50;6.20;;;;;;;6.44;100.00;101490.00;4881292;29;20209;-78
2022/03/19 07:36:33;;;;;;;11.00;6.20;;;;;;;6.57;100.00;101484.59;4931891;28;20215;-79
2022/03/19 07:39:02;;;;;;;14.67;6.73;;;;;;;6.46;100.00;101489.06;4948500;28;20232;-79
2022/03/19 07:44:17;;;;;;;12.20;6.10;;;;;;;6.62;100.00;101478.41;5047750;28;20280;-79
2022/03/19 07:46:48;;;;;;;13.20;5.90;;;;;;;6.65;100.00;101476.59;5051236;28;20197;-79
2022/03/19 07:49:28;;;;;;;11.17;5.90;;;;;;;6.74;100.00;101476.50;5050568;28;20189;-80
2022/03/19 07:51:57;;;;;;;12.17;5.97;;;;;;;6.82;100.00;101469.41;4972861;28;20203;-79
2022/03/19 07:54:27;;;;;;;14.70;6.37;;;;;;;6.75;100.00;101462.44;4914361;29;20193;-79
2022/03/19 07:56:56;;;;;;;10.00;6.00;;;;;;;6.99;100.00;101468.34;4917584;29;20221;-79
2022/03/19 07:59:37;;;;;;;14.40;5.43;;;;;;;7.14;100.00;101461.13;4864393;29;20207;-78
2022/03/19 08:02:06;;;;;;;13.37;5.37;;;;;;;7.27;100.00;101463.59;4863970;29;20636;-79
2022/03/19 08:04:34;;;;;;;10.97;5.80;;;;;;;7.35;100.00;101453.81;4865101;29;20215;-79
2022/03/19 08:07:04;;;;;;;8.97;4.90;;;;;;;7.29;100.00;101457.41;4860393;29;20707;-79
2022/03/19 08:09:33;;;;;;;12.43;5.30;;;;;;;7.49;100.00;101451.84;4790015;29;20214;-79
2022/03/19 08:12:02;;;;;;;9.00;4.53;;;;;;;7.79;100.00;101441.72;4808412;29;20205;-79
2022/03/19 08:14:33;;;;;;;9.23;5.03;;;;;;;7.97;100.00;101444.06;4808216;29;20297;-80
2022/03/19 08:17:01;;;;;;;10.80;4.90;;;;;;;7.79;100.00;101439.09;4891931;28;20228;-80
2022/03/19 08:19:31;;;;;;;9.27;4.60;;;;;;;7.70;100.00;101438.31;4989574;28;20198;-79
2022/03/19 08:22:19;;;;;;;7.57;3.93;;;;;;;7.70;100.00;101443.59;4994875;28;20721;-79
2022/03/19 08:24:47;;;;;;;9.30;4.57;;;;;;;7.95;100.00;101435.31;4993466;28;20274;-79
2022/03/19 08:27:16;;;;;;;11.23;4.27;;;;;;;8.06;100.00;101441.28;4965567;28;20193;-79
2022/03/19 08:29:47;;;;;;;10.80;3.93;;;;;;;8.09;100.00;101441.22;5049415;28;20193;-79
2022/03/19 08:32:15;;;;;;;9.77;4.20;;;;;;;8.20;100.00;101433.09;5044551;28;20189;-79
2022/03/19 08:34:45;;;;;;;7.70;4.20;;;;;;;8.08;100.00;101428.06;5048339;28;20193;-79
2022/03/19 08:37:14;;;;;;;8.03;4.03;;;;;;;8.08;100.00;101431.56;5050274;28;20684;-79
2022/03/19 08:42:33;;;;;;;13.07;4.23;;;;;;;8.14;100.00;101428.81;4916335;28;20209;-79
2022/03/19 08:45:04;;;;;;;9.37;4.50;;;;;;;8.28;100.00;101420.66;4881039;29;20304;-79
2022/03/19 08:47:34;;;;;;;7.77;3.97;;;;;;;8.56;100.00;101421.91;4991672;28;20706;-79
2022/03/19 08:50:03;;;;;;;9.07;3.37;;;;;;;8.59;100.00;101413.06;4990365;28;20187;-79
2022/03/19 08:52:36;;;;;;;8.10;3.60;;;;;;;8.74;100.00;101411.88;4988977;28;20650;-80
2022/03/19 08:55:06;;;;;;;6.73;3.43;;;;;;;8.76;100.00;101404.78;4936111;29;20189;-80
2022/03/19 08:57:34;;;;;;;10.37;3.50;;;;;;;8.74;100.00;101401.31;4933439;29;20204;-80
2022/03/19 09:00:13;;;;;;;7.77;3.03;;;;;;;8.82;100.00;101404.69;4933054;29;20227;-79
2022/03/19 09:02:49;;;;;;;9.03;3.33;;;;;;;8.85;100.00;101394.03;4937129;29;20288;-80
2022/03/19 09:05:17;;;;;;;6.90;3.50;;;;;;;8.89;100.00;101398.38;4936252;29;20225;-80
2022/03/19 09:07:46;;;;;;;9.00;3.77;;;;;;;9.15;100.00;101397.78;4858225;29;20200;-79
2022/03/19 09:10:15;;;;;;;8.97;4.30;;;;;;;8.94;100.00;101395.63;4857225;29;20196;-79
2022/03/19 09:12:49;;;;;;;9.53;3.70;;;;;;;9.44;100.00;101392.69;4867940;29;20215;-79
2022/03/19 09:15:24;;;;;;;8.17;4.20;;;;;;;9.59;100.00;101390.63;4894490;29;20676;-80
2022/03/19 09:17:53;;;;;;;9.43;4.40;;;;;;;9.72;100.00;101390.25;4913009;29;20200;-79
2022/03/19 09:20:24;;;;;;;11.87;4.47;;;;;;;9.27;100.00;101384.31;4884176;29;20202;-79
2022/03/19 09:22:53;;;;;;;11.97;5.37;;;;;;;9.43;100.00;101384.81;4897932;29;20207;-79
2022/03/19 09:25:22;;;;;;;13.63;7.70;;;;;;;9.82;100.00;101380.31;4916514;29;20204;-79
2022/03/19 09:27:53;;;;;;;7.60;5.07;;;;;;;9.85;100.00;101384.69;4893531;29;20210;-80
2022/03/19 09:30:23;;;;;;;8.77;4.40;;;;;;;10.08;100.00;101377.00;4879227;29;20199;-79
2022/03/19 09:32:56;;;;;;;9.20;3.40;;;;;;;10.07;100.00;101372.63;4871153;29;20212;-80
2022/03/19 09:35:45;;;;;;;8.07;4.17;;;;;;;10.27;100.00;101366.84;4826575;29;20282;-79
2022/03/19 09:38:14;;;;;;;7.87;4.03;;;;;;;10.35;100.00;101369.28;4881377;29;20272;-79
2022/03/19 09:40:43;;;;;;;7.87;3.90;;;;;;;10.24;97.61;101358.97;4926640;29;20243;-79
2022/03/19 09:43:16;;;;;;;7.60;4.83;;;;;;;10.37;96.97;101364.81;4938712;28;20193;-80
2022/03/19 09:45:46;;;;;;;6.43;4.20;;;;;;;10.21;93.21;101353.72;4995763;28;20205;-79
2022/03/19 09:48:15;;;;;;;7.90;3.87;;;;;;;10.31;91.17;101355.22;4944606;28;20197;-79
2022/03/19 09:50:44;;;;;;;7.83;3.40;;;;;;;10.49;90.23;101346.78;4940616;28;20220;-80
2022/03/19 09:53:13;;;;;;;6.77;3.53;;;;;;;10.40;89.38;101339.09;5043434;28;20224;-79
2022/03/19 09:55:42;;;;;;;5.60;3.07;;;;;;;10.18;85.26;101333.47;4999277;28;20193;-79
2022/03/19 09:58:12;;;;;;;5.70;3.63;;;;;;;10.79;82.89;101339.72;5052131;28;20297;-80
2022/03/19 10:00:42;;;;;;;5.63;2.60;;;;;;;10.56;75.21;101337.75;5035119;28;20197;-79
2022/03/19 10:03:14;;;;;;;7.73;2.67;;;;;;;10.80;74.15;101330.84;5046122;28;20200;-79
2022/03/19 10:08:41;;;;;;;7.10;2.80;;;;;;;11.06;64.77;101319.44;5050400;28;20653;-79
2022/03/19 10:11:11;;;;;;;7.03;3.57;;;;;;;10.88;61.87;101315.56;4979387;28;20232;-80
2022/03/19 10:13:42;;;;;;;5.73;2.73;;;;;;;10.91;59.00;101319.06;4938719;28;20284;-80
2022/03/19 10:16:10;;;;;;;6.07;2.50;;;;;;;11.48;60.13;101316.31;4925288;29;20225;-79
2022/03/19 10:18:41;;;;;;;6.83;2.63;;;;;;;11.37;57.19;101311.34;4928128;29;20280;-79
2022/03/19 10:21:16;;;;;;;5.80;2.17;;;;;;;11.92;57.17;101306.03;4940047;28;20198;-80
2022/03/19 10:23:45;;;;;;;4.67;3.00;;;;;;;11.89;54.13;101314.09;4936390;28;20204;-79
2022/03/19 10:26:25;;;;;;;5.27;2.13;;;;;;;11.99;53.83;101313.72;4942331;28;20236;-80
2022/03/19 10:28:58;;;;;;;4.87;1.90;;;;;;;11.97;54.27;101306.75;4948736;28;20192;-79
2022/03/19 10:31:32;;;;;;;3.93;1.70;;;;;;;12.35;52.10;101296.50;4957253;28;20269;-80
2022/03/19 10:34:03;;;;;;;4.90;1.83;;;;;;;12.33;50.19;101289.44;4965252;28;20204;-80
2022/03/19 10:36:34;;;;;;;3.00;1.53;;;;;;;12.77;49.40;101286.91;4931205;29;20680;-79
2022/03/19 10:39:07;;;;;;;3.63;1.40;;;;;;;13.05;44.69;101272.53;4928625;28;20233;-79
2022/03/19 10:41:37;;;;;;;4.00;1.60;;;;;;;13.15;43.04;101274.75;4926050;29;20640;-80
2022/03/19 10:44:12;;;;;;;4.17;1.50;;;;;;;13.14;43.11;101272.16;4934125;28;20368;-79
2022/03/19 10:46:47;;;;;;;2.73;1.33;;;;;;;12.21;43.20;101260.69;4936266;28;20217;-79
2022/03/19 10:49:19;;;;;;;4.07;1.47;;;;;;;12.11;43.29;101267.25;4931123;29;20201;-79
2022/03/19 10:51:50;;;;;;;3.37;1.43;;;;;;;12.53;42.99;101264.78;4925515;29;20323;-79
2022/03/19 10:54:18;;;;;;;2.60;1.50;;;;;;;12.95;42.03;101257.84;4936967;28;20196;-79
2022/03/19 10:56:48;;;;;;;2.67;1.37;;;;;;;13.45;43.56;101253.13;4968328;28;20220;-79
2022/03/19 10:59:18;;;;;;;3.57;1.63;;;;;;;13.39;39.70;101258.72;4965832;28;20188;-79
2022/03/19 11:01:49;;;;;;;3.27;1.40;;;;;;;13.34;38.68;101245.59;4953846;28;20200;-79
2022/03/19 11:04:32;;;;;;;4.03;1.70;;;;;;;13.37;37.98;101231.28;4967121;28;20192;-79
2022/03/19 11:07:06;;;;;;;2.53;1.30;;;;;;;13.74;38.47;101241.25;5025516;28;20208;-79
2022/03/19 11:09:39;;;;;;;2.47;1.30;;;;;;;13.51;36.64;101234.25;5027296;28;20198;-79
2022/03/19 11:12:09;;;;;;;2.90;1.30;;;;;;;13.33;38.39;101227.03;5020495;28;20194;-79
2022/03/19 11:14:41;;;;;;;2.67;1.07;;;;;;;13.55;38.51;101235.84;4980345;28;20194;-80
2022/03/19 11:17:25;;;;;;;3.20;1.23;;;;;;;13.50;39.08;101229.81;5012128;28;20224;-79
2022/03/19 11:19:58;;;;;;;3.27;1.47;;;;;;;13.37;37.81;101215.31;5026671;28;20664;-79
2022/03/19 11:22:29;;;;;;;3.23;1.10;;;;;;;13.55;38.06;101217.19;4970006;28;20192;-79
2022/03/19 11:25:04;;;;;;;3.43;1.40;;;;;;;13.05;36.53;101214.84;4899956;29;20198;-79
2022/03/19 11:27:38;;;;;;;4.63;1.30;;;;;;;13.65;37.32;101207.88;4954150;28;20192;-79
2022/03/19 11:30:15;;;;;;;3.10;1.83;;;;;;;13.58;38.08;101200.22;4954106;28;20199;-79
2022/03/19 11:33:05;;;;;;;4.60;1.37;;;;;;;13.35;38.07;101203.88;4954056;28;20229;-79
2022/03/19 11:35:36;;;;;;;8.00;1.43;;;;;;;13.62;37.75;101193.84;4954815;28;20203;-79
2022/03/19 11:38:11;;;;;;;3.03;1.17;;;;;;;13.58;37.97;101195.75;4951501;28;20220;-79
2022/03/19 11:40:45;;;;;;;5.53;1.40;;;;;;;13.72;37.97;101185.38;4973002;28;20223;-79
2022/03/19 11:43:30;;;;;;;2.97;1.27;;;;;;;13.88;36.83;101184.66;4988148;28;20256;-79
2022/03/19 11:46:02;;;;;;;2.83;1.10;;;;;;;13.31;36.99;101175.66;4996740;28;20195;-79
2022/03/19 11:48:48;;;;;;;2.30;1.03;;;;;;;14.09;37.03;101170.41;4998595;28;20207;-79
2022/03/19 11:51:35;;;;;;;2.10;1.30;;;;;;;13.73;37.44;101163.13;5006164;28;20191;-79
2022/03/19 11:54:05;;;;;;;2.00;1.20;;;;;;;13.58;37.23;101171.78;5052047;28;20197;-79
2022/03/19 11:57:08;;;;;;;2.80;1.10;;;;;;;13.69;37.30;101161.50;5051597;28;20223;-80
2022/03/19 11:59:48;;;;;;;3.10;1.17;;;;;;;13.97;37.37;101154.94;5055126;28;20201;-79
2022/03/19 12:02:18;;;;;;;5.73;2.73;;;;;;;13.44;38.76;101155.56;4992238;28;20241;-79